This is the latest recevied weather packets stored in our database for station/object KB1QVF. If no packets are shown the sender has not sent any weather packets the latest 10 day(s).
| Time | Temp. | Humidity | Pressure | Rain* | Wind** | Luminosity | Snow |
|---|---|---|---|---|---|---|---|
| 1777903623 | 15.56° C | 39% | 1013.2 hPa | 0 mm | - | 567 W/m² | - |
| 1777903318 | 15° C | 40% | 1013.2 hPa | 0 mm | - | 554 W/m² | - |
| 1777903015 | 15.56° C | 41% | 1013.3 hPa | 0 mm | - | 539 W/m² | - |
| 1777902711 | 15° C | 43% | 1013.4 hPa | 0 mm | - | 528 W/m² | - |
| 1777902409 | 15° C | 40% | 1013.5 hPa | 0 mm | - | 512 W/m² | - |
| 1777902105 | 15° C | 41% | 1013.7 hPa | 0 mm | - | 497 W/m² | - |
| 1777901804 | 14.44° C | 41% | 1013.7 hPa | 0 mm | - | 483 W/m² | - |
| 1777901501 | 14.44° C | 42% | 1013.7 hPa | 0 mm | - | 469 W/m² | - |
| 1777901198 | 13.89° C | 43% | 1013.8 hPa | 0 mm | - | 455 W/m² | - |
| 1777900896 | 13.89° C | 42% | 1013.8 hPa | 0 mm | - | 439 W/m² | - |
| 1777900593 | 13.89° C | 43% | 1013.7 hPa | 0 mm | - | 424 W/m² | - |
| 1777900290 | 13.33° C | 43% | 1013.8 hPa | 0 mm | - | 411 W/m² | - |
| 1777899986 | 13.33° C | 45% | 1013.7 hPa | 0 mm | - | 391 W/m² | - |
| 1777899683 | 12.78° C | 45% | 1013.9 hPa | 0 mm | - | 379 W/m² | - |
| 1777899381 | 12.78° C | 45% | 1013.9 hPa | 0 mm | - | 365 W/m² | - |
| 1777899078 | 12.22° C | 45% | 1013.9 hPa | 0 mm | - | 347 W/m² | - |
| 1777898775 | 12.22° C | 45% | 1013.9 hPa | 0 mm | - | 332 W/m² | - |
| 1777898473 | 12.22° C | 46% | 1014 hPa | 0 mm | - | 313 W/m² | - |
| 1777898170 | 11.67° C | 46% | 1014.1 hPa | 0 mm | - | 295 W/m² | - |
| 1777897867 | 11.67° C | 47% | 1014 hPa | 0 mm | - | 274 W/m² | - |
| 1777897563 | 11.67° C | 47% | 1014.1 hPa | 0 mm | - | 262 W/m² | - |
| 1777897259 | 11.11° C | 47% | 1014 hPa | 0 mm | - | 238 W/m² | - |
| 1777896955 | 11.11° C | 48% | 1014.3 hPa | 0 mm | - | 239 W/m² | - |
| 1777896652 | 10.56° C | 49% | 1014 hPa | 0 mm | - | 225 W/m² | - |
| 1777896349 | 10.56° C | 48% | 1014.1 hPa | 0 mm | - | 211 W/m² | - |
* Rain latest hour (hover to see other rain measurements)
** Current wind speed in m/s (hover to see current wind gust speed)